sensor_id;sensor_type;location;lat;lon;timestamp;pressure;altitude;pressure_sealevel;temperature;humidity
48364;BME280;34170;54.364;18.582;2023-02-23T00:02:06;100675.19;;;0.75;100.00
48364;BME280;34170;54.364;18.582;2023-02-23T00:04:35;100676.22;;;1.09;100.00
48364;BME280;34170;54.364;18.582;2023-02-23T00:07:03;100667.56;;;0.69;100.00
48364;BME280;34170;54.364;18.582;2023-02-23T00:09:32;100687.41;;;0.97;100.00
48364;BME280;34170;54.364;18.582;2023-02-23T00:12:04;100682.88;;;0.81;100.00
48364;BME280;34170;54.364;18.582;2023-02-23T00:14:36;100670.84;;;0.74;100.00
48364;BME280;34170;54.364;18.582;2023-02-23T00:17:05;100667.56;;;0.50;100.00
48364;BME280;34170;54.364;18.582;2023-02-23T00:19:41;100685.16;;;0.70;100.00
48364;BME280;34170;54.364;18.582;2023-02-23T00:22:10;100670.59;;;0.98;100.00
48364;BME280;34170;54.364;18.582;2023-02-23T00:24:39;100672.13;;;0.46;100.00
48364;BME280;34170;54.364;18.582;2023-02-23T00:27:09;100664.25;;;0.45;100.00
48364;BME280;34170;54.364;18.582;2023-02-23T00:29:36;100669.78;;;0.40;100.00
48364;BME280;34170;54.364;18.582;2023-02-23T00:32:06;100673.41;;;0.18;100.00
48364;BME280;34170;54.364;18.582;2023-02-23T00:34:35;100672.13;;;0.65;100.00
48364;BME280;34170;54.364;18.582;2023-02-23T00:37:04;100670.09;;;0.89;100.00
48364;BME280;34170;54.364;18.582;2023-02-23T00:39:31;100663.63;;;0.21;100.00
48364;BME280;34170;54.364;18.582;2023-02-23T00:41:58;100663.41;;;0.44;100.00
48364;BME280;34170;54.364;18.582;2023-02-23T00:44:29;100660.63;;;0.28;100.00
48364;BME280;34170;54.364;18.582;2023-02-23T00:46:59;100652.50;;;-0.07;100.00
48364;BME280;34170;54.364;18.582;2023-02-23T00:49:27;100649.19;;;0.28;100.00
48364;BME280;34170;54.364;18.582;2023-02-23T00:51:54;100644.44;;;0.15;100.00
48364;BME280;34170;54.364;18.582;2023-02-23T00:54:22;100643.97;;;-0.13;100.00
48364;BME280;34170;54.364;18.582;2023-02-23T00:56:50;100643.53;;;0.16;100.00
48364;BME280;34170;54.364;18.582;2023-02-23T00:59:18;100645.78;;;-0.14;100.00
48364;BME280;34170;54.364;18.582;2023-02-23T01:01:46;100648.25;;;0.10;100.00
48364;BME280;34170;54.364;18.582;2023-02-23T01:04:14;100650.84;;;-0.09;100.00
48364;BME280;34170;54.364;18.582;2023-02-23T01:06:42;100645.16;;;0.00;100.00
48364;BME280;34170;54.364;18.582;2023-02-23T01:09:14;100648.66;;;0.01;100.00
48364;BME280;34170;54.364;18.582;2023-02-23T01:11:42;100658.69;;;0.32;100.00
48364;BME280;34170;54.364;18.582;2023-02-23T01:14:13;100656.81;;;0.34;100.00
48364;BME280;34170;54.364;18.582;2023-02-23T01:16:41;100655.84;;;0.36;100.00
48364;BME280;34170;54.364;18.582;2023-02-23T01:19:09;100661.31;;;0.32;100.00
48364;BME280;34170;54.364;18.582;2023-02-23T01:21:38;100645.53;;;0.30;100.00
48364;BME280;34170;54.364;18.582;2023-02-23T01:24:08;100662.84;;;-0.02;100.00
48364;BME280;34170;54.364;18.582;2023-02-23T01:26:38;100652.69;;;-0.11;100.00
48364;BME280;34170;54.364;18.582;2023-02-23T01:29:11;100657.75;;;-0.26;100.00
48364;BME280;34170;54.364;18.582;2023-02-23T01:31:41;100640.38;;;-0.31;100.00
48364;BME280;34170;54.364;18.582;2023-02-23T01:34:11;100631.31;;;-0.26;100.00
48364;BME280;34170;54.364;18.582;2023-02-23T01:36:41;100638.16;;;-0.22;100.00
48364;BME280;34170;54.364;18.582;2023-02-23T01:39:14;100648.22;;;-0.30;100.00
48364;BME280;34170;54.364;18.582;2023-02-23T01:41:42;100642.06;;;-0.10;100.00
48364;BME280;34170;54.364;18.582;2023-02-23T01:46:43;100629.88;;;-0.53;100.00
48364;BME280;34170;54.364;18.582;2023-02-23T01:49:23;100630.06;;;-0.58;100.00
48364;BME280;34170;54.364;18.582;2023-02-23T01:51:59;100637.00;;;-0.35;100.00
48364;BME280;34170;54.364;18.582;2023-02-23T01:54:36;100631.91;;;-0.40;100.00
48364;BME280;34170;54.364;18.582;2023-02-23T01:57:05;100630.88;;;-0.16;100.00
48364;BME280;34170;54.364;18.582;2023-02-23T01:59:40;100623.66;;;-0.32;100.00
48364;BME280;34170;54.364;18.582;2023-02-23T02:02:08;100612.69;;;-0.04;100.00
48364;BME280;34170;54.364;18.582;2023-02-23T02:04:37;100620.59;;;-0.43;100.00
48364;BME280;34170;54.364;18.582;2023-02-23T02:07:15;100617.47;;;-0.51;100.00
48364;BME280;34170;54.364;18.582;2023-02-23T02:09:49;100609.66;;;-0.54;100.00
48364;BME280;34170;54.364;18.582;2023-02-23T02:12:44;100610.28;;;-0.29;100.00
48364;BME280;34170;54.364;18.582;2023-02-23T02:15:13;100613.47;;;-0.21;100.00
48364;BME280;34170;54.364;18.582;2023-02-23T02:28:40;100604.97;;;-0.68;100.00
48364;BME280;34170;54.364;18.582;2023-02-23T02:31:34;100604.13;;;-0.48;100.00
48364;BME280;34170;54.364;18.582;2023-02-23T02:40:31;100600.09;;;-0.57;100.00
48364;BME280;34170;54.364;18.582;2023-02-23T02:43:18;100611.91;;;-0.66;100.00
48364;BME280;34170;54.364;18.582;2023-02-23T02:45:54;100602.13;;;-0.84;100.00
48364;BME280;34170;54.364;18.582;2023-02-23T02:53:56;100591.44;;;-1.02;100.00
48364;BME280;34170;54.364;18.582;2023-02-23T02:56:25;100604.50;;;-0.78;100.00
48364;BME280;34170;54.364;18.582;2023-02-23T02:58:54;100600.53;;;-0.27;100.00
48364;BME280;34170;54.364;18.582;2023-02-23T03:01:21;100597.84;;;-0.87;100.00
48364;BME280;34170;54.364;18.582;2023-02-23T03:04:24;100589.06;;;-0.67;100.00
48364;BME280;34170;54.364;18.582;2023-02-23T03:07:21;100580.06;;;-1.04;100.00
48364;BME280;34170;54.364;18.582;2023-02-23T03:10:38;100598.50;;;-0.82;100.00
48364;BME280;34170;54.364;18.582;2023-02-23T03:19:58;100579.81;;;-0.98;100.00
48364;BME280;34170;54.364;18.582;2023-02-23T03:29:33;100577.94;;;-0.96;100.00
48364;BME280;34170;54.364;18.582;2023-02-23T03:32:39;100577.63;;;-0.67;100.00
48364;BME280;34170;54.364;18.582;2023-02-23T03:41:30;100570.31;;;-1.02;100.00
48364;BME280;34170;54.364;18.582;2023-02-23T03:44:23;100575.66;;;-0.83;100.00
48364;BME280;34170;54.364;18.582;2023-02-23T03:47:16;100561.16;;;-1.15;100.00
48364;BME280;34170;54.364;18.582;2023-02-23T03:50:06;100568.91;;;-1.32;100.00
48364;BME280;34170;54.364;18.582;2023-02-23T03:52:57;100555.72;;;-1.32;100.00
48364;BME280;34170;54.364;18.582;2023-02-23T03:55:49;100561.50;;;-1.02;100.00
48364;BME280;34170;54.364;18.582;2023-02-23T03:58:42;100547.34;;;-1.22;100.00
48364;BME280;34170;54.364;18.582;2023-02-23T04:01:30;100552.47;;;-1.17;100.00
48364;BME280;34170;54.364;18.582;2023-02-23T04:04:18;100559.75;;;-0.81;98.75
48364;BME280;34170;54.364;18.582;2023-02-23T04:07:06;100553.25;;;-1.15;98.38
48364;BME280;34170;54.364;18.582;2023-02-23T04:09:53;100553.97;;;-1.32;99.56
48364;BME280;34170;54.364;18.582;2023-02-23T04:12:42;100554.94;;;-1.35;99.95
48364;BME280;34170;54.364;18.582;2023-02-23T04:15:32;100555.88;;;-1.15;99.25
48364;BME280;34170;54.364;18.582;2023-02-23T04:18:03;100540.94;;;-1.37;98.99
48364;BME280;34170;54.364;18.582;2023-02-23T04:20:31;100539.94;;;-1.12;97.85
48364;BME280;34170;54.364;18.582;2023-02-23T04:22:59;100541.50;;;-1.08;98.49
48364;BME280;34170;54.364;18.582;2023-02-23T04:25:28;100548.38;;;-1.24;100.00
48364;BME280;34170;54.364;18.582;2023-02-23T04:27:56;100542.28;;;-1.26;98.93
48364;BME280;34170;54.364;18.582;2023-02-23T04:30:23;100536.44;;;-0.92;96.78
48364;BME280;34170;54.364;18.582;2023-02-23T04:32:52;100532.59;;;-1.26;99.78
48364;BME280;34170;54.364;18.582;2023-02-23T04:35:19;100545.59;;;-1.01;96.99
48364;BME280;34170;54.364;18.582;2023-02-23T04:37:47;100527.53;;;-1.10;98.94
48364;BME280;34170;54.364;18.582;2023-02-23T04:40:14;100539.81;;;-1.09;97.75
48364;BME280;34170;54.364;18.582;2023-02-23T04:42:42;100536.63;;;-0.76;96.13
48364;BME280;34170;54.364;18.582;2023-02-23T04:45:09;100527.41;;;-1.07;96.05
48364;BME280;34170;54.364;18.582;2023-02-23T04:47:37;100532.69;;;-1.07;96.89
48364;BME280;34170;54.364;18.582;2023-02-23T04:50:05;100526.56;;;-1.29;96.39
48364;BME280;34170;54.364;18.582;2023-02-23T04:52:32;100515.56;;;-1.19;97.02
48364;BME280;34170;54.364;18.582;2023-02-23T04:55:01;100517.16;;;-0.94;96.54
48364;BME280;34170;54.364;18.582;2023-02-23T04:57:28;100515.84;;;-1.04;95.83
48364;BME280;34170;54.364;18.582;2023-02-23T04:59:56;100522.09;;;-0.86;95.48
48364;BME280;34170;54.364;18.582;2023-02-23T05:02:23;100504.41;;;-1.25;95.40
48364;BME280;34170;54.364;18.582;2023-02-23T05:04:51;100506.53;;;-1.33;95.78
48364;BME280;34170;54.364;18.582;2023-02-23T05:07:18;100499.53;;;-0.93;94.11
48364;BME280;34170;54.364;18.582;2023-02-23T05:09:46;100499.69;;;-1.17;94.30
48364;BME280;34170;54.364;18.582;2023-02-23T05:12:13;100495.13;;;-1.13;94.95
48364;BME280;34170;54.364;18.582;2023-02-23T05:14:41;100500.75;;;-1.21;93.67
48364;BME280;34170;54.364;18.582;2023-02-23T05:17:08;100493.06;;;-1.27;93.19
48364;BME280;34170;54.364;18.582;2023-02-23T05:19:36;100492.66;;;-1.39;93.85
48364;BME280;34170;54.364;18.582;2023-02-23T05:22:03;100502.38;;;-1.19;93.74
48364;BME280;34170;54.364;18.582;2023-02-23T05:24:31;100488.44;;;-1.43;94.30
48364;BME280;34170;54.364;18.582;2023-02-23T05:26:59;100494.47;;;-0.98;92.91
48364;BME280;34170;54.364;18.582;2023-02-23T05:29:26;100489.56;;;-1.48;94.44
48364;BME280;34170;54.364;18.582;2023-02-23T05:31:53;100492.94;;;-1.45;95.84
48364;BME280;34170;54.364;18.582;2023-02-23T05:34:21;100471.84;;;-1.24;94.56
48364;BME280;34170;54.364;18.582;2023-02-23T05:36:49;100469.59;;;-1.33;94.25
48364;BME280;34170;54.364;18.582;2023-02-23T05:39:16;100461.53;;;-1.10;94.19
48364;BME280;34170;54.364;18.582;2023-02-23T05:41:43;100467.53;;;-1.47;94.99
48364;BME280;34170;54.364;18.582;2023-02-23T05:44:11;100463.75;;;-1.42;94.83
48364;BME280;34170;54.364;18.582;2023-02-23T05:46:39;100466.88;;;-1.32;95.91
48364;BME280;34170;54.364;18.582;2023-02-23T05:49:06;100459.94;;;-1.35;94.28
48364;BME280;34170;54.364;18.582;2023-02-23T05:51:34;100462.97;;;-1.03;95.21
48364;BME280;34170;54.364;18.582;2023-02-23T05:54:01;100451.44;;;-1.21;94.90
48364;BME280;34170;54.364;18.582;2023-02-23T05:56:29;100454.94;;;-1.41;96.04
48364;BME280;34170;54.364;18.582;2023-02-23T05:58:57;100470.66;;;-1.38;96.47
48364;BME280;34170;54.364;18.582;2023-02-23T06:01:26;100455.06;;;-1.64;96.72
48364;BME280;34170;54.364;18.582;2023-02-23T06:03:54;100463.25;;;-1.72;98.17
48364;BME280;34170;54.364;18.582;2023-02-23T06:06:22;100452.44;;;-1.23;95.76
48364;BME280;34170;54.364;18.582;2023-02-23T06:08:52;100458.91;;;-1.30;96.26
48364;BME280;34170;54.364;18.582;2023-02-23T06:11:19;100457.25;;;-1.12;95.96
48364;BME280;34170;54.364;18.582;2023-02-23T06:13:47;100448.81;;;-1.21;95.33
48364;BME280;34170;54.364;18.582;2023-02-23T06:16:15;100440.06;;;-1.02;95.43
48364;BME280;34170;54.364;18.582;2023-02-23T06:18:43;100446.34;;;-1.25;95.37
48364;BME280;34170;54.364;18.582;2023-02-23T06:21:10;100441.19;;;-0.87;96.11
48364;BME280;34170;54.364;18.582;2023-02-23T06:23:38;100440.44;;;-1.30;94.80
48364;BME280;34170;54.364;18.582;2023-02-23T06:26:05;100447.81;;;-1.39;95.09
48364;BME280;34170;54.364;18.582;2023-02-23T06:28:34;100440.81;;;-1.40;96.49
48364;BME280;34170;54.364;18.582;2023-02-23T06:31:01;100451.75;;;-1.49;97.63
48364;BME280;34170;54.364;18.582;2023-02-23T06:33:29;100452.88;;;-1.55;96.70
48364;BME280;34170;54.364;18.582;2023-02-23T06:35:56;100445.72;;;-1.30;95.28
48364;BME280;34170;54.364;18.582;2023-02-23T06:38:23;100428.00;;;-1.08;95.48
48364;BME280;34170;54.364;18.582;2023-02-23T06:40:51;100453.88;;;-1.79;97.46
48364;BME280;34170;54.364;18.582;2023-02-23T06:43:18;100424.34;;;-1.24;95.22
48364;BME280;34170;54.364;18.582;2023-02-23T06:45:49;100434.47;;;-1.15;95.26
48364;BME280;34170;54.364;18.582;2023-02-23T06:48:16;100435.88;;;-1.47;96.79
48364;BME280;34170;54.364;18.582;2023-02-23T06:50:43;100426.56;;;-0.94;94.22
48364;BME280;34170;54.364;18.582;2023-02-23T06:53:11;100426.66;;;-0.39;91.62
48364;BME280;34170;54.364;18.582;2023-02-23T06:55:38;100416.16;;;-1.39;95.05
48364;BME280;34170;54.364;18.582;2023-02-23T06:58:06;100417.84;;;-1.17;95.08
48364;BME280;34170;54.364;18.582;2023-02-23T07:00:33;100410.22;;;-1.44;97.34
48364;BME280;34170;54.364;18.582;2023-02-23T07:03:01;100408.63;;;-0.88;93.57
48364;BME280;34170;54.364;18.582;2023-02-23T07:05:28;100419.66;;;-0.99;93.96
48364;BME280;34170;54.364;18.582;2023-02-23T07:07:56;100417.00;;;-0.40;91.81
48364;BME280;34170;54.364;18.582;2023-02-23T07:10:23;100415.59;;;-0.28;88.08
48364;BME280;34170;54.364;18.582;2023-02-23T07:12:52;100415.41;;;-0.06;90.90
48364;BME280;34170;54.364;18.582;2023-02-23T07:15:20;100413.06;;;-0.12;89.01
48364;BME280;34170;54.364;18.582;2023-02-23T07:17:47;100414.28;;;-0.20;88.28
48364;BME280;34170;54.364;18.582;2023-02-23T07:20:15;100401.59;;;0.24;84.82
48364;BME280;34170;54.364;18.582;2023-02-23T07:22:43;100403.00;;;1.48;81.18
48364;BME280;34170;54.364;18.582;2023-02-23T07:25:10;100400.97;;;0.53;81.75
48364;BME280;34170;54.364;18.582;2023-02-23T07:27:38;100395.66;;;0.88;81.64
48364;BME280;34170;54.364;18.582;2023-02-23T07:30:06;100394.31;;;0.29;84.94
48364;BME280;34170;54.364;18.582;2023-02-23T07:32:33;100379.34;;;0.63;80.43
48364;BME280;34170;54.364;18.582;2023-02-23T07:35:02;100369.75;;;1.27;78.39
48364;BME280;34170;54.364;18.582;2023-02-23T07:37:29;100372.06;;;1.17;78.40
48364;BME280;34170;54.364;18.582;2023-02-23T07:39:57;100371.41;;;1.77;76.28
48364;BME280;34170;54.364;18.582;2023-02-23T07:42:27;100378.88;;;1.21;76.46
48364;BME280;34170;54.364;18.582;2023-02-23T07:44:54;100380.59;;;0.38;81.84
48364;BME280;34170;54.364;18.582;2023-02-23T07:47:22;100377.50;;;-0.24;84.06
48364;BME280;34170;54.364;18.582;2023-02-23T07:49:57;100373.63;;;1.04;79.81
48364;BME280;34170;54.364;18.582;2023-02-23T07:52:26;100377.00;;;1.23;77.14
48364;BME280;34170;54.364;18.582;2023-02-23T07:54:53;100375.59;;;0.49;81.83
48364;BME280;34170;54.364;18.582;2023-02-23T07:57:20;100370.75;;;0.75;78.87
48364;BME280;34170;54.364;18.582;2023-02-23T07:59:50;100375.94;;;0.26;84.42
48364;BME280;34170;54.364;18.582;2023-02-23T08:02:18;100371.13;;;0.16;82.36
48364;BME280;34170;54.364;18.582;2023-02-23T08:04:45;100376.50;;;0.83;79.57
48364;BME280;34170;54.364;18.582;2023-02-23T08:07:14;100367.03;;;1.44;77.42
48364;BME280;34170;54.364;18.582;2023-02-23T08:09:41;100369.06;;;1.87;75.99
48364;BME280;34170;54.364;18.582;2023-02-23T08:12:09;100360.97;;;0.60;79.62
48364;BME280;34170;54.364;18.582;2023-02-23T08:14:36;100353.03;;;0.93;81.01
48364;BME280;34170;54.364;18.582;2023-02-23T08:17:04;100350.50;;;1.23;77.74
48364;BME280;34170;54.364;18.582;2023-02-23T08:19:31;100349.44;;;1.43;76.11
48364;BME280;34170;54.364;18.582;2023-02-23T08:21:59;100348.78;;;1.06;79.34
48364;BME280;34170;54.364;18.582;2023-02-23T08:24:26;100334.00;;;0.18;82.38
48364;BME280;34170;54.364;18.582;2023-02-23T08:26:57;100341.25;;;0.83;80.07
48364;BME280;34170;54.364;18.582;2023-02-23T08:29:24;100329.72;;;1.00;76.75
48364;BME280;34170;54.364;18.582;2023-02-23T08:31:52;100325.22;;;1.33;77.07
48364;BME280;34170;54.364;18.582;2023-02-23T08:34:19;100329.06;;;1.60;75.22
48364;BME280;34170;54.364;18.582;2023-02-23T08:36:49;100339.31;;;0.69;79.25
48364;BME280;34170;54.364;18.582;2023-02-23T08:39:17;100342.19;;;0.98;77.83
48364;BME280;34170;54.364;18.582;2023-02-23T08:41:45;100331.97;;;1.55;75.44
48364;BME280;34170;54.364;18.582;2023-02-23T08:44:12;100321.78;;;1.63;73.51
48364;BME280;34170;54.364;18.582;2023-02-23T08:46:39;100327.78;;;0.19;81.57
48364;BME280;34170;54.364;18.582;2023-02-23T08:49:07;100331.44;;;0.16;81.94
48364;BME280;34170;54.364;18.582;2023-02-23T08:51:37;100331.88;;;1.09;78.68
48364;BME280;34170;54.364;18.582;2023-02-23T08:54:04;100317.69;;;1.74;74.41
48364;BME280;34170;54.364;18.582;2023-02-23T08:56:36;100318.63;;;1.41;74.93
48364;BME280;34170;54.364;18.582;2023-02-23T08:59:03;100317.63;;;0.78;77.95
48364;BME280;34170;54.364;18.582;2023-02-23T09:01:31;100317.63;;;1.43;75.09
48364;BME280;34170;54.364;18.582;2023-02-23T09:03:59;100309.94;;;1.23;75.94
48364;BME280;34170;54.364;18.582;2023-02-23T09:06:27;100332.69;;;0.78;77.74
48364;BME280;34170;54.364;18.582;2023-02-23T09:08:55;100325.38;;;0.99;77.81
48364;BME280;34170;54.364;18.582;2023-02-23T09:11:23;100317.72;;;1.42;74.79
48364;BME280;34170;54.364;18.582;2023-02-23T09:13:50;100311.13;;;1.49;74.18
48364;BME280;34170;54.364;18.582;2023-02-23T09:16:17;100320.75;;;1.50;74.57
48364;BME280;34170;54.364;18.582;2023-02-23T09:18:45;100316.56;;;2.08;71.23
48364;BME280;34170;54.364;18.582;2023-02-23T09:21:15;100315.59;;;1.79;73.63
48364;BME280;34170;54.364;18.582;2023-02-23T09:23:48;100311.75;;;2.15;72.21
48364;BME280;34170;54.364;18.582;2023-02-23T09:26:18;100304.63;;;2.01;72.36
48364;BME280;34170;54.364;18.582;2023-02-23T09:28:46;100308.00;;;3.19;68.00
48364;BME280;34170;54.364;18.582;2023-02-23T09:31:16;100309.66;;;2.20;69.15
48364;BME280;34170;54.364;18.582;2023-02-23T09:33:44;100285.47;;;2.69;68.95
48364;BME280;34170;54.364;18.582;2023-02-23T09:36:14;100285.16;;;2.45;70.47
48364;BME280;34170;54.364;18.582;2023-02-23T09:38:48;100288.44;;;2.20;70.37
48364;BME280;34170;54.364;18.582;2023-02-23T09:44:40;100301.09;;;2.45;72.39
48364;BME280;34170;54.364;18.582;2023-02-23T09:49:40;100284.03;;;3.07;67.21
48364;BME280;34170;54.364;18.582;2023-02-23T09:52:19;100276.88;;;3.21;67.44
48364;BME280;34170;54.364;18.582;2023-02-23T09:54:47;100280.03;;;3.95;64.43
48364;BME280;34170;54.364;18.582;2023-02-23T09:57:19;100279.06;;;4.09;64.27
48364;BME280;34170;54.364;18.582;2023-02-23T09:59:48;100275.00;;;2.95;67.59
48364;BME280;34170;54.364;18.582;2023-02-23T10:02:37;100282.50;;;3.44;66.82
48364;BME280;34170;54.364;18.582;2023-02-23T10:05:11;100289.13;;;4.31;62.77
48364;BME280;34170;54.364;18.582;2023-02-23T10:07:45;100284.66;;;4.45;63.58
48364;BME280;34170;54.364;18.582;2023-02-23T10:10:38;100262.97;;;2.89;66.70
48364;BME280;34170;54.364;18.582;2023-02-23T10:19:12;100270.50;;;6.27;56.32
48364;BME280;34170;54.364;18.582;2023-02-23T10:21:50;100251.28;;;4.90;58.46
48364;BME280;34170;54.364;18.582;2023-02-23T10:24:32;100260.44;;;5.23;57.83
48364;BME280;34170;54.364;18.582;2023-02-23T10:27:18;100256.81;;;6.32;55.00
48364;BME280;34170;54.364;18.582;2023-02-23T10:29:51;100245.09;;;5.86;56.93
48364;BME280;34170;54.364;18.582;2023-02-23T10:32:42;100234.03;;;6.04;54.54
48364;BME280;34170;54.364;18.582;2023-02-23T10:35:17;100238.88;;;6.57;53.60
48364;BME280;34170;54.364;18.582;2023-02-23T10:37:47;100227.25;;;6.00;55.17
48364;BME280;34170;54.364;18.582;2023-02-23T10:40:17;100243.91;;;5.55;55.94
48364;BME280;34170;54.364;18.582;2023-02-23T10:42:46;100227.66;;;5.34;57.73
48364;BME280;34170;54.364;18.582;2023-02-23T10:45:19;100233.91;;;3.82;62.26
48364;BME280;34170;54.364;18.582;2023-02-23T10:48:28;100231.88;;;6.20;56.50
48364;BME280;34170;54.364;18.582;2023-02-23T10:50:54;100229.72;;;6.25;54.40
48364;BME280;34170;54.364;18.582;2023-02-23T10:53:30;100219.91;;;6.82;53.13
48364;BME280;34170;54.364;18.582;2023-02-23T10:56:07;100218.88;;;4.84;59.89
48364;BME280;34170;54.364;18.582;2023-02-23T10:58:46;100223.84;;;5.01;59.06
48364;BME280;34170;54.364;18.582;2023-02-23T11:01:35;100210.31;;;4.54;61.07
48364;BME280;34170;54.364;18.582;2023-02-23T11:04:40;100206.91;;;5.26;58.84
48364;BME280;34170;54.364;18.582;2023-02-23T11:07:27;100196.91;;;4.17;62.96
48364;BME280;34170;54.364;18.582;2023-02-23T11:09:59;100195.88;;;5.31;59.35
48364;BME280;34170;54.364;18.582;2023-02-23T11:12:45;100191.69;;;4.03;63.17
48364;BME280;34170;54.364;18.582;2023-02-23T11:15:27;100178.91;;;4.21;64.21
48364;BME280;34170;54.364;18.582;2023-02-23T11:18:20;100162.31;;;4.05;65.52
48364;BME280;34170;54.364;18.582;2023-02-23T11:20:49;100167.56;;;5.41;60.57
48364;BME280;34170;54.364;18.582;2023-02-23T11:23:22;100164.50;;;4.49;62.17
48364;BME280;34170;54.364;18.582;2023-02-23T11:25:52;100160.06;;;4.24;64.08
48364;BME280;34170;54.364;18.582;2023-02-23T11:33:42;100145.09;;;3.04;68.39
48364;BME280;34170;54.364;18.582;2023-02-23T11:36:25;100133.66;;;2.90;71.28
48364;BME280;34170;54.364;18.582;2023-02-23T11:41:43;100138.91;;;3.31;70.29
48364;BME280;34170;54.364;18.582;2023-02-23T11:44:20;100134.56;;;3.43;68.81
48364;BME280;34170;54.364;18.582;2023-02-23T11:46:49;100129.81;;;3.61;67.38
48364;BME280;34170;54.364;18.582;2023-02-23T11:49:21;100125.47;;;3.73;67.63
48364;BME280;34170;54.364;18.582;2023-02-23T11:51:50;100122.88;;;4.35;65.26
48364;BME280;34170;54.364;18.582;2023-02-23T11:54:29;100114.09;;;3.71;67.87
48364;BME280;34170;54.364;18.582;2023-02-23T11:56:57;100112.09;;;4.50;65.08
48364;BME280;34170;54.364;18.582;2023-02-23T11:59:34;100103.00;;;3.51;67.98
48364;BME280;34170;54.364;18.582;2023-02-23T12:02:24;100113.66;;;3.90;65.94
48364;BME280;34170;54.364;18.582;2023-02-23T12:05:25;100105.84;;;4.25;65.69
48364;BME280;34170;54.364;18.582;2023-02-23T12:13:34;100092.41;;;4.39;66.65
48364;BME280;34170;54.364;18.582;2023-02-23T12:16:17;100091.50;;;4.52;66.10
48364;BME280;34170;54.364;18.582;2023-02-23T12:19:01;100083.44;;;3.78;69.51
48364;BME280;34170;54.364;18.582;2023-02-23T12:21:33;100082.22;;;4.33;67.27
48364;BME280;34170;54.364;18.582;2023-02-23T12:24:27;100097.50;;;3.80;70.81
48364;BME280;34170;54.364;18.582;2023-02-23T12:27:11;100079.78;;;4.17;69.86
48364;BME280;34170;54.364;18.582;2023-02-23T12:32:54;100087.28;;;4.73;64.99
48364;BME280;34170;54.364;18.582;2023-02-23T12:41:13;100061.19;;;4.42;66.96
48364;BME280;34170;54.364;18.582;2023-02-23T12:43:55;100044.38;;;3.91;69.85
48364;BME280;34170;54.364;18.582;2023-02-23T12:46:36;100050.63;;;4.16;69.04
48364;BME280;34170;54.364;18.582;2023-02-23T12:49:51;100038.34;;;4.26;67.56
48364;BME280;34170;54.364;18.582;2023-02-23T12:52:21;100021.91;;;4.08;68.38
48364;BME280;34170;54.364;18.582;2023-02-23T12:54:52;100026.06;;;3.99;70.92
48364;BME280;34170;54.364;18.582;2023-02-23T12:57:29;100007.59;;;4.46;66.70
48364;BME280;34170;54.364;18.582;2023-02-23T13:00:03;100025.25;;;4.23;68.68
48364;BME280;34170;54.364;18.582;2023-02-23T13:14:29;99988.25;;;3.70;73.08
48364;BME280;34170;54.364;18.582;2023-02-23T13:19:49;99969.38;;;3.73;74.37
48364;BME280;34170;54.364;18.582;2023-02-23T13:22:45;99955.53;;;3.94;73.91
48364;BME280;34170;54.364;18.582;2023-02-23T13:28:27;99938.28;;;4.94;69.80
48364;BME280;34170;54.364;18.582;2023-02-23T13:30:59;99942.41;;;4.28;72.53
48364;BME280;34170;54.364;18.582;2023-02-23T13:33:31;99926.69;;;4.60;71.21
48364;BME280;34170;54.364;18.582;2023-02-23T13:36:10;99922.09;;;4.62;72.21
48364;BME280;34170;54.364;18.582;2023-02-23T13:39:05;99913.41;;;4.71;72.08
48364;BME280;34170;54.364;18.582;2023-02-23T13:44:26;99910.00;;;4.34;73.15
48364;BME280;34170;54.364;18.582;2023-02-23T13:51:58;99877.63;;;4.51;73.05
48364;BME280;34170;54.364;18.582;2023-02-23T13:54:32;99890.16;;;4.38;74.69
48364;BME280;34170;54.364;18.582;2023-02-23T13:57:10;99879.75;;;4.82;73.05
48364;BME280;34170;54.364;18.582;2023-02-23T13:59:43;99885.88;;;5.06;71.38
48364;BME280;34170;54.364;18.582;2023-02-23T14:02:35;99898.69;;;5.01;72.11
48364;BME280;34170;54.364;18.582;2023-02-23T14:07:42;99893.00;;;4.48;74.53
48364;BME280;34170;54.364;18.582;2023-02-23T14:10:21;99903.75;;;5.04;72.96
48364;BME280;34170;54.364;18.582;2023-02-23T14:13:23;99892.50;;;4.54;73.46
48364;BME280;34170;54.364;18.582;2023-02-23T14:19:08;99880.25;;;4.87;72.37
48364;BME280;34170;54.364;18.582;2023-02-23T14:21:50;99870.03;;;4.58;73.72
48364;BME280;34170;54.364;18.582;2023-02-23T14:24:25;99867.66;;;4.89;72.72
48364;BME280;34170;54.364;18.582;2023-02-23T14:29:30;99857.28;;;4.50;75.54
48364;BME280;34170;54.364;18.582;2023-02-23T14:37:39;99842.13;;;5.31;70.40
48364;BME280;34170;54.364;18.582;2023-02-23T14:40:20;99838.09;;;4.69;73.89
48364;BME280;34170;54.364;18.582;2023-02-23T14:42:50;99842.22;;;5.07;73.12
48364;BME280;34170;54.364;18.582;2023-02-23T14:45:25;99831.03;;;4.46;74.10
48364;BME280;34170;54.364;18.582;2023-02-23T14:47:57;99829.44;;;4.43;76.55
48364;BME280;34170;54.364;18.582;2023-02-23T14:50:30;99822.09;;;4.58;75.45
48364;BME280;34170;54.364;18.582;2023-02-23T14:52:59;99829.03;;;5.28;73.41
48364;BME280;34170;54.364;18.582;2023-02-23T14:55:30;99827.31;;;4.82;73.72
48364;BME280;34170;54.364;18.582;2023-02-23T14:58:00;99834.91;;;4.53;75.23
48364;BME280;34170;54.364;18.582;2023-02-23T15:00:29;99822.13;;;5.03;73.32
48364;BME280;34170;54.364;18.582;2023-02-23T15:03:00;99832.91;;;5.13;73.12
48364;BME280;34170;54.364;18.582;2023-02-23T15:05:43;99829.16;;;4.82;74.62
48364;BME280;34170;54.364;18.582;2023-02-23T15:08:16;99816.31;;;4.98;74.38
48364;BME280;34170;54.364;18.582;2023-02-23T15:10:47;99802.66;;;4.33;77.71
48364;BME280;34170;54.364;18.582;2023-02-23T15:13:31;99808.38;;;4.40;77.81
48364;BME280;34170;54.364;18.582;2023-02-23T15:16:06;99807.47;;;4.75;75.77